Time;durP1;ratioP1;P1;durP2;ratioP2;P2;SDS_P1;SDS_P2;PMS_P1;PMS_P2;Temp;Humidity;BMP_temperature;BMP_pressure;BME280_temperature;BME280_humidity;BME280_pressure;Samples;Min_cycle;Max_cycle;Signal;HPM_P1;HPM_P2
2021/10/17 00:02:19;;;;;;;0.40;0.40;;;21.60;50.10;;;;;;5074410;28;20289;-44
2021/10/17 00:04:50;;;;;;;1.25;0.40;;;21.60;50.30;;;;;;5089160;28;20257;-45
2021/10/17 00:07:22;;;;;;;0.38;0.30;;;21.60;50.20;;;;;;5076390;28;20229;-45
2021/10/17 00:09:53;;;;;;;0.30;0.30;;;21.70;50.40;;;;;;5070727;28;20268;-46
2021/10/17 00:12:23;;;;;;;0.43;0.25;;;21.70;50.40;;;;;;5080696;28;20282;-52
2021/10/17 00:14:54;;;;;;;0.40;0.32;;;21.70;50.50;;;;;;5071754;28;20249;-43
2021/10/17 00:17:25;;;;;;;0.30;0.28;;;21.70;50.60;;;;;;5072012;28;20815;-46
2021/10/17 00:19:55;;;;;;;0.35;0.35;;;21.70;50.70;;;;;;5075311;28;20305;-47
2021/10/17 00:22:29;;;;;;;0.57;0.30;;;21.70;50.70;;;;;;5071054;28;20235;-50
2021/10/17 00:25:00;;;;;;;0.45;0.35;;;21.80;50.70;;;;;;5071261;28;20863;-46
2021/10/17 00:27:30;;;;;;;1.45;0.40;;;21.80;50.70;;;;;;5072495;28;20651;-48
2021/10/17 00:30:01;;;;;;;1.15;0.40;;;21.80;50.70;;;;;;5071681;28;20250;-50
2021/10/17 00:32:31;;;;;;;0.52;0.38;;;21.90;50.70;;;;;;5079218;28;20198;-50
2021/10/17 00:35:04;;;;;;;0.40;0.35;;;21.90;50.70;;;;;;5082225;28;20237;-51
2021/10/17 00:37:37;;;;;;;0.38;0.20;;;21.90;50.70;;;;;;5072704;28;20199;-50
2021/10/17 00:40:10;;;;;;;0.43;0.25;;;21.90;50.60;;;;;;5069777;28;20242;-47
2021/10/17 00:42:41;;;;;;;0.32;0.32;;;21.90;50.60;;;;;;5069621;28;20222;-44
2021/10/17 00:45:14;;;;;;;0.85;0.47;;;22.00;50.60;;;;;;5070990;28;20748;-46
2021/10/17 00:47:44;;;;;;;0.28;0.28;;;22.00;50.60;;;;;;5072397;28;20721;-50
2021/10/17 00:50:15;;;;;;;0.45;0.30;;;22.00;50.60;;;;;;5070919;28;20242;-46
2021/10/17 00:52:48;;;;;;;0.73;0.40;;;22.00;50.70;;;;;;5078349;28;20660;-42
2021/10/17 00:55:20;;;;;;;0.47;0.40;;;22.00;50.60;;;;;;5071366;28;20237;-48
2021/10/17 00:57:50;;;;;;;0.50;0.38;;;22.10;50.70;;;;;;5080239;28;20696;-51
2021/10/17 01:00:21;;;;;;;0.28;0.28;;;22.10;50.60;;;;;;5070991;28;20242;-49
2021/10/17 01:02:51;;;;;;;0.32;0.30;;;22.10;50.60;;;;;;5070813;28;20230;-53
2021/10/17 01:05:22;;;;;;;0.20;0.20;;;22.10;50.70;;;;;;5073925;28;20300;-49
2021/10/17 01:07:54;;;;;;;0.32;0.32;;;22.10;50.70;;;;;;5077791;28;20677;-43
2021/10/17 01:10:25;;;;;;;0.47;0.30;;;22.10;50.70;;;;;;5068351;28;20249;-47
2021/10/17 01:12:55;;;;;;;0.32;0.32;;;22.20;50.70;;;;;;5071156;28;20662;-50
2021/10/17 01:15:26;;;;;;;0.20;0.20;;;22.20;50.70;;;;;;5070534;28;20226;-45
2021/10/17 01:17:56;;;;;;;0.20;0.20;;;22.20;50.70;;;;;;5080122;28;20285;-51
2021/10/17 01:20:29;;;;;;;0.52;0.20;;;22.20;50.70;;;;;;5073195;28;20218;-53
2021/10/17 01:23:00;;;;;;;0.77;0.25;;;22.20;50.70;;;;;;5076238;28;20214;-45
2021/10/17 01:25:30;;;;;;;0.90;0.30;;;22.20;50.70;;;;;;5072401;28;20215;-49
2021/10/17 01:28:01;;;;;;;0.40;0.40;;;22.30;50.60;;;;;;5070848;28;20595;-48
2021/10/17 01:30:34;;;;;;;0.45;0.35;;;22.30;50.60;;;;;;5071019;28;20222;-42
2021/10/17 01:33:05;;;;;;;0.75;0.50;;;22.30;50.50;;;;;;5069999;28;20201;-40
2021/10/17 01:35:37;;;;;;;1.42;0.30;;;22.30;50.50;;;;;;5071478;28;20245;-45
2021/10/17 01:38:10;;;;;;;0.25;0.25;;;22.30;50.30;;;;;;5065813;28;20301;-46
2021/10/17 01:40:40;;;;;;;0.20;0.20;;;22.30;50.30;;;;;;5075296;28;20631;-45
2021/10/17 01:43:11;;;;;;;0.20;0.20;;;22.30;50.30;;;;;;5071507;28;20239;-53
2021/10/17 01:45:41;;;;;;;0.20;0.20;;;22.30;50.30;;;;;;5071125;28;20305;-45
2021/10/17 01:48:12;;;;;;;0.35;0.30;;;22.30;50.30;;;;;;5071931;28;20691;-45
2021/10/17 01:50:45;;;;;;;1.40;0.20;;;22.30;50.30;;;;;;5070085;28;20591;-45
2021/10/17 01:53:16;;;;;;;0.50;0.30;;;22.40;50.40;;;;;;5070480;28;20281;-47
2021/10/17 01:55:46;;;;;;;0.30;0.30;;;22.40;50.30;;;;;;5071575;28;20233;-48
2021/10/17 01:58:17;;;;;;;1.08;0.40;;;22.40;50.40;;;;;;5069298;28;20231;-44
2021/10/17 02:00:47;;;;;;;0.60;0.30;;;22.40;50.40;;;;;;5067367;28;20635;-46
2021/10/17 02:03:17;;;;;;;0.47;0.30;;;22.40;50.20;;;;;;5080931;28;20286;-51
2021/10/17 02:05:50;;;;;;;0.40;0.35;;;22.40;50.20;;;;;;5082232;28;20313;-43
2021/10/17 02:08:20;;;;;;;1.77;0.32;;;22.40;50.20;;;;;;5078479;28;20622;-49
2021/10/17 02:10:51;;;;;;;0.40;0.40;;;22.40;50.10;;;;;;5074927;28;20316;-49
2021/10/17 02:13:21;;;;;;;0.82;0.30;;;22.40;50.00;;;;;;5082873;28;20286;-50
2021/10/17 02:15:52;;;;;;;0.90;0.60;;;22.50;49.90;;;;;;5073295;28;20230;-46
2021/10/17 02:18:22;;;;;;;0.20;0.20;;;22.50;49.90;;;;;;5070837;28;20718;-48
2021/10/17 02:20:55;;;;;;;0.30;0.30;;;22.50;49.80;;;;;;5074581;28;20361;-44
2021/10/17 02:23:25;;;;;;;0.40;0.30;;;22.50;49.90;;;;;;5068779;28;20221;-48
2021/10/17 02:25:56;;;;;;;1.20;0.47;;;22.50;50.00;;;;;;5068587;28;20254;-46
2021/10/17 02:28:26;;;;;;;0.35;0.22;;;22.50;49.90;;;;;;5077582;28;20199;-46
2021/10/17 02:30:57;;;;;;;0.43;0.40;;;22.50;49.90;;;;;;5073868;28;20309;-51
2021/10/17 02:33:27;;;;;;;1.10;0.50;;;22.50;49.90;;;;;;5078909;28;20281;-48
2021/10/17 02:35:59;;;;;;;0.57;0.50;;;22.60;49.90;;;;;;5085012;28;20281;-46
2021/10/17 02:38:30;;;;;;;1.13;0.50;;;22.60;49.70;;;;;;5081766;28;20290;-49
2021/10/17 02:41:00;;;;;;;2.28;0.50;;;22.60;49.70;;;;;;5074540;28;20317;-47
2021/10/17 02:43:31;;;;;;;1.13;0.50;;;22.60;49.60;;;;;;5068932;28;20238;-46
2021/10/17 02:46:01;;;;;;;1.38;0.30;;;22.60;49.40;;;;;;5070571;28;20310;-45
2021/10/17 02:48:32;;;;;;;1.67;0.40;;;22.70;49.30;;;;;;5086786;28;20729;-47
2021/10/17 02:51:04;;;;;;;0.40;0.40;;;22.70;49.20;;;;;;5076372;28;20302;-50
2021/10/17 02:53:35;;;;;;;0.75;0.45;;;22.70;49.20;;;;;;5080828;28;20285;-48
2021/10/17 02:56:05;;;;;;;1.15;0.40;;;22.80;49.20;;;;;;5079227;28;20689;-45
2021/10/17 02:58:36;;;;;;;0.88;0.45;;;22.80;49.10;;;;;;5084403;28;20603;-52
2021/10/17 03:01:07;;;;;;;1.73;0.50;;;22.90;49.10;;;;;;5074830;28;20305;-48
2021/10/17 03:03:37;;;;;;;1.08;0.50;;;22.90;49.00;;;;;;5080064;28;20226;-46
2021/10/17 03:06:10;;;;;;;0.55;0.35;;;22.90;48.90;;;;;;5082628;28;20257;-49
2021/10/17 03:08:40;;;;;;;0.30;0.30;;;22.90;48.80;;;;;;5071531;28;20279;-56
2021/10/17 03:11:11;;;;;;;1.17;0.38;;;22.90;48.90;;;;;;5082728;28;20242;-54
2021/10/17 03:13:41;;;;;;;1.73;0.40;;;23.00;48.90;;;;;;5075203;28;20666;-46
2021/10/17 03:16:11;;;;;;;0.57;0.40;;;23.00;48.80;;;;;;5072192;28;20234;-53
2021/10/17 03:18:42;;;;;;;0.50;0.30;;;23.00;48.90;;;;;;5073729;28;20242;-57
2021/10/17 03:21:14;;;;;;;1.13;0.40;;;23.00;49.00;;;;;;5072663;28;20641;-51
2021/10/17 03:23:45;;;;;;;0.47;0.40;;;23.10;49.00;;;;;;5073074;28;20226;-50
2021/10/17 03:26:15;;;;;;;0.75;0.30;;;23.10;48.90;;;;;;5072611;28;20248;-49
2021/10/17 03:28:46;;;;;;;0.90;0.50;;;23.20;48.90;;;;;;5088236;28;20247;-44
2021/10/17 03:31:16;;;;;;;1.27;0.40;;;23.20;48.90;;;;;;5077974;28;20246;-55
2021/10/17 03:33:47;;;;;;;1.75;0.50;;;23.20;48.70;;;;;;5071534;28;20237;-51
2021/10/17 03:36:20;;;;;;;0.82;0.40;;;23.20;48.60;;;;;;5082120;28;20275;-43
2021/10/17 03:38:50;;;;;;;0.95;0.40;;;23.30;48.70;;;;;;5079214;28;20286;-49
2021/10/17 03:41:21;;;;;;;1.25;0.40;;;23.30;48.60;;;;;;5072260;28;20301;-47
2021/10/17 03:43:51;;;;;;;0.70;0.40;;;23.30;48.60;;;;;;5072097;28;20226;-43
2021/10/17 03:46:22;;;;;;;2.92;0.60;;;23.40;48.50;;;;;;5072708;28;20217;-44
2021/10/17 03:48:52;;;;;;;1.38;0.60;;;23.40;48.30;;;;;;5072984;28;20273;-53
2021/10/17 03:51:25;;;;;;;0.80;0.50;;;23.40;48.30;;;;;;5070374;28;20264;-46
2021/10/17 03:53:55;;;;;;;0.63;0.45;;;23.40;48.40;;;;;;5071408;28;20280;-46
2021/10/17 03:56:25;;;;;;;1.38;0.65;;;23.50;48.40;;;;;;5072524;28;20291;-43
2021/10/17 03:58:56;;;;;;;0.98;0.52;;;23.50;48.40;;;;;;5075527;28;20281;-47
2021/10/17 04:01:27;;;;;;;1.15;0.40;;;23.50;48.30;;;;;;5082167;28;20241;-43
2021/10/17 04:03:57;;;;;;;1.25;0.30;;;23.50;48.10;;;;;;5083895;28;20199;-45
2021/10/17 04:06:29;;;;;;;0.50;0.40;;;23.60;48.20;;;;;;5071144;28;20808;-46
2021/10/17 04:09:00;;;;;;;0.88;0.40;;;23.60;48.20;;;;;;5072163;28;20241;-43
2021/10/17 04:11:30;;;;;;;0.20;0.20;;;23.60;47.90;;;;;;5072047;28;20256;-49
2021/10/17 04:14:01;;;;;;;1.55;0.40;;;23.60;47.80;;;;;;5072636;28;20224;-50
2021/10/17 04:16:31;;;;;;;1.20;0.38;;;23.60;47.80;;;;;;5071940;28;20634;-44
2021/10/17 04:19:03;;;;;;;1.17;0.40;;;23.70;47.60;;;;;;5084208;28;20241;-52
2021/10/17 04:21:36;;;;;;;0.50;0.40;;;23.70;47.60;;;;;;5077829;28;20691;-47
2021/10/17 04:24:07;;;;;;;0.63;0.35;;;23.70;47.50;;;;;;5077661;28;20736;-51
2021/10/17 04:26:37;;;;;;;0.38;0.30;;;23.70;47.40;;;;;;5073044;28;20313;-47
2021/10/17 04:29:08;;;;;;;0.70;0.60;;;23.70;47.30;;;;;;5071228;28;20240;-46
2021/10/17 04:31:38;;;;;;;1.13;0.38;;;23.70;47.00;;;;;;5073909;28;20214;-49
2021/10/17 04:34:09;;;;;;;0.68;0.32;;;23.70;47.00;;;;;;5071250;28;20273;-49
2021/10/17 04:36:41;;;;;;;0.90;0.50;;;23.80;47.10;;;;;;5070152;28;20235;-49
2021/10/17 04:39:12;;;;;;;2.85;0.47;;;23.80;47.10;;;;;;5071111;28;20282;-43
2021/10/17 04:41:42;;;;;;;1.67;0.30;;;23.80;46.90;;;;;;5076354;28;20661;-43
2021/10/17 04:44:13;;;;;;;0.73;0.30;;;23.80;46.80;;;;;;5071615;28;20324;-46
2021/10/17 04:46:43;;;;;;;1.05;0.40;;;23.80;46.90;;;;;;5076320;28;20305;-50
2021/10/17 04:49:14;;;;;;;1.92;0.40;;;23.80;46.80;;;;;;5082398;28;20274;-52
2021/10/17 04:51:46;;;;;;;0.65;0.40;;;23.80;46.70;;;;;;5078524;28;20278;-51
2021/10/17 04:54:17;;;;;;;1.90;0.52;;;23.80;46.60;;;;;;5083005;28;20290;-48
2021/10/17 04:56:47;;;;;;;0.68;0.32;;;23.90;46.60;;;;;;5069529;28;20668;-50
2021/10/17 04:59:21;;;;;;;1.67;0.35;;;23.90;46.60;;;;;;5087577;28;20234;-52
2021/10/17 05:01:52;;;;;;;0.32;0.32;;;23.90;46.50;;;;;;5070726;28;20654;-55
2021/10/17 05:04:22;;;;;;;0.68;0.43;;;23.90;46.60;;;;;;5077058;28;20247;-45
2021/10/17 05:06:54;;;;;;;1.90;0.50;;;23.90;46.60;;;;;;5074189;28;20260;-54
2021/10/17 05:09:25;;;;;;;1.02;0.43;;;23.90;46.60;;;;;;5069720;28;20226;-53
2021/10/17 05:11:55;;;;;;;0.38;0.32;;;23.90;46.60;;;;;;5072419;28;20686;-51
2021/10/17 05:14:26;;;;;;;1.35;0.45;;;23.90;46.50;;;;;;5071538;28;20194;-55
2021/10/17 05:16:56;;;;;;;0.85;0.38;;;23.90;46.50;;;;;;5070847;28;20285;-53
2021/10/17 05:19:27;;;;;;;0.52;0.30;;;23.90;46.50;;;;;;5070152;28;20236;-52
2021/10/17 05:21:59;;;;;;;1.80;0.30;;;23.90;46.60;;;;;;5082405;28;20233;-51
2021/10/17 05:24:29;;;;;;;0.40;0.35;;;24.00;46.60;;;;;;5070776;28;20234;-57
2021/10/17 05:27:00;;;;;;;3.10;0.40;;;23.90;46.60;;;;;;5072055;28;20299;-55
2021/10/17 05:29:30;;;;;;;0.22;0.20;;;23.90;46.60;;;;;;5070532;28;20876;-55
2021/10/17 05:32:01;;;;;;;0.95;0.50;;;23.90;46.60;;;;;;5074367;28;20244;-54
2021/10/17 05:34:31;;;;;;;0.85;0.50;;;24.00;46.70;;;;;;5070980;28;20195;-51
2021/10/17 05:37:04;;;;;;;0.40;0.30;;;23.90;46.60;;;;;;5070603;28;20227;-53
2021/10/17 05:39:34;;;;;;;1.65;0.40;;;24.00;46.60;;;;;;5071060;28;20198;-53
2021/10/17 05:42:05;;;;;;;1.80;0.30;;;24.00;46.70;;;;;;5073285;28;20987;-49
2021/10/17 05:44:35;;;;;;;0.30;0.30;;;24.00;46.60;;;;;;5073691;28;20199;-41
2021/10/17 05:47:06;;;;;;;1.08;0.45;;;24.00;46.60;;;;;;5090115;28;20261;-53
2021/10/17 05:49:37;;;;;;;0.40;0.30;;;24.00;46.50;;;;;;5076586;28;20266;-54
2021/10/17 05:52:10;;;;;;;0.30;0.30;;;24.00;47.10;;;;;;5076404;28;20203;-50
2021/10/17 05:54:40;;;;;;;0.50;0.30;;;24.00;46.40;;;;;;5083786;28;20616;-48
2021/10/17 05:57:11;;;;;;;0.77;0.30;;;24.00;46.50;;;;;;5075946;28;20645;-54
2021/10/17 05:59:41;;;;;;;1.02;0.50;;;24.00;46.50;;;;;;5074585;28;20250;-47
2021/10/17 06:02:12;;;;;;;1.00;0.30;;;24.00;46.50;;;;;;5082562;28;20226;-47
2021/10/17 06:04:42;;;;;;;0.98;0.30;;;24.00;46.50;;;;;;5091885;28;20238;-49
2021/10/17 06:07:15;;;;;;;0.40;0.30;;;24.00;46.50;;;;;;5088283;28;20257;-54
2021/10/17 06:09:45;;;;;;;1.17;0.40;;;24.00;46.50;;;;;;5074281;28;20254;-55
2021/10/17 06:12:16;;;;;;;0.30;0.30;;;23.90;46.50;;;;;;5074160;28;20238;-50
2021/10/17 06:14:46;;;;;;;0.60;0.40;;;23.90;46.50;;;;;;5074864;28;20199;-44
2021/10/17 06:17:17;;;;;;;0.47;0.40;;;23.90;47.20;;;;;;5074010;28;20226;-49
2021/10/17 06:19:47;;;;;;;0.32;0.30;;;23.90;46.60;;;;;;5078309;28;20245;-49
2021/10/17 06:22:19;;;;;;;1.63;0.40;;;23.90;46.80;;;;;;5077588;28;20226;-45
2021/10/17 06:24:50;;;;;;;0.35;0.30;;;23.90;46.90;;;;;;5090365;28;20278;-43
2021/10/17 06:27:20;;;;;;;0.98;0.57;;;23.90;46.90;;;;;;5071304;28;20317;-52
2021/10/17 06:29:51;;;;;;;0.68;0.50;;;23.90;47.00;;;;;;5088893;28;20249;-54
2021/10/17 06:32:21;;;;;;;0.57;0.55;;;23.80;47.00;;;;;;5073455;28;20238;-49
2021/10/17 06:34:52;;;;;;;0.52;0.45;;;23.80;46.90;;;;;;5083168;28;20230;-43
2021/10/17 06:37:24;;;;;;;1.35;0.57;;;23.80;46.90;;;;;;5079388;28;20227;-49
2021/10/17 06:39:54;;;;;;;0.60;0.50;;;23.80;46.90;;;;;;5081290;28;20254;-44
2021/10/17 06:42:25;;;;;;;1.20;0.60;;;23.80;47.10;;;;;;5074701;28;20248;-46
2021/10/17 06:44:55;;;;;;;0.55;0.55;;;23.80;46.90;;;;;;5074563;28;20226;-54
2021/10/17 06:47:26;;;;;;;0.80;0.50;;;23.80;46.90;;;;;;5076067;28;20313;-50
2021/10/17 06:49:56;;;;;;;0.70;0.50;;;23.80;47.00;;;;;;5068517;28;20214;-50
2021/10/17 06:52:29;;;;;;;1.95;0.80;;;23.70;47.00;;;;;;5074170;28;20288;-51
2021/10/17 06:54:59;;;;;;;2.65;0.57;;;23.70;47.10;;;;;;5074008;28;20286;-49
2021/10/17 06:57:30;;;;;;;1.75;0.55;;;23.70;47.10;;;;;;5082893;28;20225;-49
2021/10/17 07:00:00;;;;;;;0.70;0.70;;;23.70;47.10;;;;;;5081253;28;20659;-52
2021/10/17 07:02:30;;;;;;;0.88;0.77;;;23.70;47.10;;;;;;5081942;28;20649;-47
2021/10/17 07:05:01;;;;;;;0.70;0.70;;;23.60;47.10;;;;;;5075753;28;20347;-51
2021/10/17 07:07:33;;;;;;;0.80;0.70;;;23.60;47.20;;;;;;5072606;28;20260;-52
2021/10/17 07:10:04;;;;;;;1.20;0.60;;;23.60;47.20;;;;;;5072498;28;20268;-51
2021/10/17 07:12:35;;;;;;;0.55;0.52;;;23.50;47.20;;;;;;5072655;28;20281;-53
2021/10/17 07:15:05;;;;;;;1.45;0.52;;;23.50;47.30;;;;;;5072974;28;20231;-50
2021/10/17 07:17:36;;;;;;;0.88;0.70;;;23.50;47.40;;;;;;5073453;28;20747;-47
2021/10/17 07:20:08;;;;;;;0.70;0.50;;;23.50;47.40;;;;;;5064997;28;20307;-47
2021/10/17 07:22:40;;;;;;;0.50;0.50;;;23.40;47.30;;;;;;5072381;28;20237;-54
2021/10/17 07:25:11;;;;;;;2.03;0.77;;;23.40;47.30;;;;;;5072982;28;20230;-49
2021/10/17 07:27:41;;;;;;;0.90;0.65;;;23.40;47.30;;;;;;5073319;28;20327;-52
2021/10/17 07:30:12;;;;;;;0.90;0.70;;;23.40;47.50;;;;;;5075869;28;20300;-54
2021/10/17 07:32:43;;;;;;;0.82;0.70;;;23.40;47.40;;;;;;5072361;28;20282;-49
2021/10/17 07:35:13;;;;;;;1.00;0.60;;;23.40;47.40;;;;;;5082421;28;20238;-50
2021/10/17 07:37:46;;;;;;;1.55;0.70;;;23.30;47.40;;;;;;5072562;28;20241;-55
2021/10/17 07:40:16;;;;;;;0.65;0.63;;;23.30;47.50;;;;;;5072036;28;20352;-48
2021/10/17 07:42:47;;;;;;;1.10;0.70;;;23.30;47.60;;;;;;5072731;28;20234;-49
2021/10/17 07:45:17;;;;;;;0.60;0.50;;;23.30;47.70;;;;;;5072105;28;20278;-49
2021/10/17 07:47:47;;;;;;;1.05;0.60;;;23.30;47.70;;;;;;5077419;28;20297;-47
2021/10/17 07:50:18;;;;;;;1.55;0.60;;;23.20;47.60;;;;;;5087048;28;20246;-53
2021/10/17 07:52:50;;;;;;;1.23;0.82;;;23.20;47.60;;;;;;5088395;28;20232;-53
2021/10/17 07:55:21;;;;;;;1.27;0.68;;;23.20;47.70;;;;;;5071444;28;20230;-52
2021/10/17 07:57:53;;;;;;;0.73;0.60;;;23.10;47.70;;;;;;5070724;28;20226;-53
2021/10/17 08:00:25;;;;;;;1.10;0.70;;;23.10;47.80;;;;;;5072579;28;20263;-45
2021/10/17 08:02:55;;;;;;;0.60;0.60;;;23.10;47.80;;;;;;5071966;28;20234;-53
2021/10/17 08:05:26;;;;;;;1.27;0.77;;;23.10;47.90;;;;;;5082062;28;20287;-49
2021/10/17 08:07:59;;;;;;;0.85;0.55;;;23.00;47.90;;;;;;5082284;28;20309;-44
2021/10/17 08:10:29;;;;;;;0.80;0.60;;;23.00;47.90;;;;;;5073432;28;20242;-52
2021/10/17 08:13:01;;;;;;;0.85;0.60;;;23.00;48.00;;;;;;5073664;28;20233;-47
2021/10/17 08:15:32;;;;;;;1.90;0.60;;;23.00;47.90;;;;;;5087771;28;20203;-49
2021/10/17 08:18:02;;;;;;;1.30;0.80;;;22.90;47.90;;;;;;5070423;28;20282;-47
2021/10/17 08:20:33;;;;;;;0.95;0.63;;;22.90;47.90;;;;;;5089307;28;20246;-53
2021/10/17 08:23:05;;;;;;;1.25;0.70;;;22.90;47.90;;;;;;5083739;28;20283;-53
2021/10/17 08:25:38;;;;;;;0.60;0.60;;;22.90;47.90;;;;;;5072192;28;20234;-55
2021/10/17 08:28:08;;;;;;;1.85;0.55;;;22.90;47.90;;;;;;5073462;28;20226;-46
2021/10/17 08:30:39;;;;;;;0.73;0.50;;;22.80;47.90;;;;;;5072030;28;20226;-51
2021/10/17 08:33:09;;;;;;;1.13;0.73;;;22.80;47.90;;;;;;5074152;28;20282;-53
2021/10/17 08:35:40;;;;;;;1.23;0.60;;;22.80;47.90;;;;;;5078436;28;20230;-48
2021/10/17 08:38:12;;;;;;;0.70;0.50;;;22.80;47.90;;;;;;5072361;28;20306;-52
2021/10/17 08:40:43;;;;;;;0.57;0.50;;;22.70;47.90;;;;;;5070351;28;20246;-50
2021/10/17 08:43:13;;;;;;;0.80;0.70;;;22.70;48.00;;;;;;5080907;28;20302;-52
2021/10/17 08:45:45;;;;;;;1.67;0.60;;;22.70;48.00;;;;;;5070651;28;20390;-53
2021/10/17 08:48:16;;;;;;;1.30;0.68;;;22.70;48.00;;;;;;5082810;28;20245;-51
2021/10/17 08:50:48;;;;;;;1.05;0.70;;;22.70;48.10;;;;;;5074299;28;20242;-48
2021/10/17 08:53:21;;;;;;;0.65;0.50;;;22.70;48.10;;;;;;5070333;28;20202;-52
2021/10/17 08:55:52;;;;;;;1.00;0.63;;;22.60;48.00;;;;;;5075792;28;20829;-47
2021/10/17 08:58:23;;;;;;;1.42;0.77;;;22.60;48.00;;;;;;5070645;28;20253;-55
2021/10/17 09:00:53;;;;;;;0.60;0.50;;;22.60;48.00;;;;;;5070224;28;20229;-51
2021/10/17 09:03:34;;;;;;;1.27;0.60;;;22.50;47.90;;;;;;5081165;28;20226;-44
2021/10/17 09:06:18;;;;;;;0.73;0.50;;;22.50;47.90;;;;;;5086697;28;20205;-55
2021/10/17 09:08:55;;;;;;;1.42;0.75;;;22.50;47.90;;;;;;5072485;28;20320;-53
2021/10/17 09:11:40;;;;;;;0.55;0.50;;;22.40;47.90;;;;;;5069902;28;20285;-52
2021/10/17 09:14:11;;;;;;;1.08;0.60;;;22.40;47.90;;;;;;5069546;28;20756;-52
2021/10/17 09:16:43;;;;;;;0.65;0.43;;;22.40;48.00;;;;;;5071584;28;20289;-48
2021/10/17 09:19:17;;;;;;;0.63;0.63;;;22.40;48.10;;;;;;5074259;28;20294;-53
2021/10/17 09:22:05;;;;;;;1.52;0.57;;;22.40;48.10;;;;;;5075806;28;20281;-45
2021/10/17 09:24:40;;;;;;;0.75;0.60;;;22.30;48.10;;;;;;5082854;28;20259;-49
2021/10/17 09:27:17;;;;;;;0.65;0.50;;;22.30;48.20;;;;;;5083455;28;20226;-56
2021/10/17 09:29:49;;;;;;;1.58;0.70;;;22.30;48.20;;;;;;5074741;28;20298;-56
2021/10/17 09:32:22;;;;;;;1.08;0.50;;;22.20;48.20;;;;;;5075678;28;21472;-54
2021/10/17 09:34:59;;;;;;;0.60;0.60;;;22.20;48.20;;;;;;5078601;28;20241;-44
2021/10/17 09:37:38;;;;;;;2.13;0.65;;;22.20;48.30;;;;;;5074991;28;20629;-55
2021/10/17 09:40:18;;;;;;;1.13;0.60;;;22.20;48.30;;;;;;5077940;28;20224;-54
2021/10/17 09:43:08;;;;;;;1.88;0.63;;;22.20;48.30;;;;;;5073923;28;20198;-46
2021/10/17 09:45:39;;;;;;;1.00;0.60;;;22.10;48.30;;;;;;5074307;28;20201;-50
2021/10/17 09:48:10;;;;;;;0.40;0.40;;;22.10;48.30;;;;;;5089326;28;20247;-45
2021/10/17 09:50:41;;;;;;;0.85;0.70;;;22.10;48.40;;;;;;5074631;28;20772;-52
2021/10/17 09:53:14;;;;;;;1.40;0.65;;;22.10;48.40;;;;;;5073855;28;20231;-47
2021/10/17 09:55:55;;;;;;;1.00;0.60;;;22.10;48.50;;;;;;5074864;28;20232;-51
2021/10/17 09:58:28;;;;;;;0.70;0.70;;;22.00;48.40;;;;;;5082490;28;20278;-45
2021/10/17 10:00:58;;;;;;;1.30;0.60;;;22.00;48.40;;;;;;5083334;28;20241;-50
2021/10/17 10:03:30;;;;;;;0.55;0.50;;;22.00;48.40;;;;;;5073915;28;20231;-49
2021/10/17 10:06:01;;;;;;;0.95;0.68;;;22.00;48.50;;;;;;5075959;28;20275;-53
2021/10/17 10:08:32;;;;;;;0.80;0.60;;;22.00;48.60;;;;;;5072578;28;20310;-56
2021/10/17 10:11:05;;;;;;;1.35;0.60;;;21.90;48.60;;;;;;5073045;28;20592;-52
2021/10/17 10:13:36;;;;;;;1.33;0.65;;;21.90;48.60;;;;;;5073979;28;20294;-55
2021/10/17 10:16:08;;;;;;;2.22;0.75;;;21.90;48.60;;;;;;5074729;28;20755;-49
2021/10/17 10:18:41;;;;;;;0.60;0.50;;;21.90;48.70;;;;;;5074624;28;20253;-47
2021/10/17 10:21:12;;;;;;;0.98;0.70;;;21.90;48.70;;;;;;5074865;28;20246;-53
2021/10/17 10:23:44;;;;;;;0.50;0.50;;;21.90;48.70;;;;;;5077467;28;20226;-51
2021/10/17 10:26:18;;;;;;;1.00;0.60;;;21.80;48.70;;;;;;5084302;28;20630;-49
2021/10/17 10:28:48;;;;;;;1.33;0.65;;;21.80;48.70;;;;;;5072695;28;20308;-49
2021/10/17 10:31:46;;;;;;;1.00;0.50;;;21.80;48.70;;;;;;5073700;28;20245;-55
2021/10/17 10:35:03;;;;;;;1.00;0.63;;;21.80;48.70;;;;;;5073472;28;20203;-50
2021/10/17 10:37:34;;;;;;;1.23;0.57;;;21.80;48.70;;;;;;5076864;28;20194;-51
2021/10/17 10:40:25;;;;;;;0.60;0.50;;;21.80;48.80;;;;;;5086887;28;20288;-53
2021/10/17 10:42:57;;;;;;;0.57;0.50;;;21.70;48.80;;;;;;5071146;28;20285;-45
2021/10/17 10:45:34;;;;;;;0.93;0.52;;;21.70;48.80;;;;;;5071913;28;20199;-47
2021/10/17 10:48:25;;;;;;;0.50;0.47;;;21.70;48.80;;;;;;5090146;28;20228;-48
2021/10/17 10:50:58;;;;;;;1.35;0.60;;;21.60;48.80;;;;;;5070886;28;20306;-49
2021/10/17 10:53:51;;;;;;;1.38;0.50;;;21.60;48.80;;;;;;5071359;28;20199;-55
2021/10/17 10:56:46;;;;;;;0.35;0.35;;;21.60;48.90;;;;;;5072486;28;20206;-49
2021/10/17 10:59:21;;;;;;;0.52;0.50;;;21.60;48.90;;;;;;5070977;28;20677;-52
2021/10/17 11:01:57;;;;;;;0.68;0.50;;;21.60;48.90;;;;;;5080016;28;20228;-49
2021/10/17 11:05:03;;;;;;;0.70;0.50;;;21.60;49.00;;;;;;5072552;28;20289;-53
2021/10/17 11:07:38;;;;;;;1.17;0.50;;;21.50;49.00;;;;;;5089147;28;20243;-52
2021/10/17 11:10:44;;;;;;;0.50;0.50;;;21.50;48.90;;;;;;5072485;28;20291;-51
2021/10/17 11:13:46;;;;;;;0.75;0.50;;;21.50;49.00;;;;;;5071667;28;20194;-54
2021/10/17 11:16:25;;;;;;;1.20;0.65;;;21.50;48.90;;;;;;5025469;28;20572;-54
2021/10/17 11:19:00;;;;;;;0.50;0.50;;;21.40;49.00;;;;;;5064654;28;20286;-48
2021/10/17 11:21:34;;;;;;;0.75;0.43;;;21.40;48.90;;;;;;5072858;28;20250;-48
2021/10/17 11:24:05;;;;;;;0.93;0.50;;;21.40;49.00;;;;;;5072255;28;20221;-46
2021/10/17 11:26:36;;;;;;;0.47;0.47;;;21.40;49.00;;;;;;5081800;28;20540;-44
2021/10/17 11:29:06;;;;;;;1.00;0.57;;;21.40;49.10;;;;;;5077427;28;20250;-45
2021/10/17 11:31:40;;;;;;;0.70;0.60;;;21.30;49.00;;;;;;5073434;28;20648;-49
2021/10/17 11:34:10;;;;;;;0.40;0.40;;;21.30;49.00;;;;;;5073661;28;20226;-49
2021/10/17 11:36:40;;;;;;;0.98;0.50;;;21.30;49.10;;;;;;5072589;28;20233;-49
2021/10/17 11:39:11;;;;;;;0.85;0.60;;;21.30;49.00;;;;;;5071676;28;20286;-47
2021/10/17 11:41:42;;;;;;;1.90;0.65;;;21.30;49.00;;;;;;5069524;28;20257;-54
2021/10/17 11:44:12;;;;;;;0.98;0.70;;;21.20;49.00;;;;;;5072385;28;20237;-54
2021/10/17 11:46:45;;;;;;;1.33;0.50;;;21.20;49.10;;;;;;5071646;28;20678;-55
2021/10/17 11:49:24;;;;;;;0.60;0.60;;;21.20;49.10;;;;;;5071615;28;20305;-52
2021/10/17 11:52:07;;;;;;;0.52;0.52;;;21.20;49.10;;;;;;5071917;28;20588;-46
2021/10/17 11:54:45;;;;;;;0.80;0.43;;;21.20;49.20;;;;;;5071644;28;20202;-45
2021/10/17 11:57:30;;;;;;;0.47;0.43;;;21.20;49.10;;;;;;5073250;28;20202;-49
2021/10/17 12:00:01;;;;;;;1.00;0.50;;;21.10;49.10;;;;;;5071426;28;20301;-52
2021/10/17 12:02:38;;;;;;;0.68;0.50;;;21.20;49.20;;;;;;5075423;28;20244;-51
2021/10/17 12:05:20;;;;;;;0.65;0.45;;;21.10;49.10;;;;;;5084568;28;20280;-45
2021/10/17 12:07:51;;;;;;;0.80;0.50;;;21.10;49.20;;;;;;5071045;28;20694;-51
2021/10/17 12:10:21;;;;;;;0.57;0.55;;;21.10;49.20;;;;;;5072758;28;20662;-50
2021/10/17 12:12:52;;;;;;;0.98;0.50;;;21.10;49.20;;;;;;5084400;28;20237;-51
2021/10/17 12:15:22;;;;;;;1.15;0.63;;;21.00;49.20;;;;;;5072100;28;20654;-53
2021/10/17 12:18:02;;;;;;;0.93;0.50;;;21.10;49.20;;;;;;5069806;28;21363;-55
2021/10/17 12:20:34;;;;;;;1.30;0.70;;;21.00;49.30;;;;;;5070465;28;20258;-49
2021/10/17 12:23:04;;;;;;;0.70;0.60;;;21.00;49.20;;;;;;5083444;28;20289;-54
2021/10/17 12:25:35;;;;;;;0.65;0.50;;;21.00;49.30;;;;;;5083440;28;20702;-52
2021/10/17 12:28:05;;;;;;;0.45;0.40;;;21.00;49.30;;;;;;5078492;28;20223;-50
2021/10/17 12:30:39;;;;;;;0.80;0.50;;;21.00;49.30;;;;;;5071444;28;20306;-54
2021/10/17 12:33:12;;;;;;;0.65;0.60;;;21.00;49.40;;;;;;5070689;28;20206;-46
2021/10/17 12:35:48;;;;;;;0.73;0.50;;;20.90;49.30;;;;;;5080374;28;20202;-50
2021/10/17 12:38:19;;;;;;;0.82;0.60;;;20.90;49.30;;;;;;5073051;28;20209;-45
2021/10/17 12:40:55;;;;;;;0.60;0.50;;;21.00;49.40;;;;;;5070451;28;20242;-53
2021/10/17 12:43:31;;;;;;;0.95;0.50;;;20.90;49.30;;;;;;5081826;28;20233;-42
2021/10/17 12:46:16;;;;;;;0.50;0.50;;;20.90;49.30;;;;;;5071170;28;20225;-46
2021/10/17 12:48:50;;;;;;;0.60;0.50;;;20.90;49.30;;;;;;5071118;28;20214;-48
2021/10/17 12:51:31;;;;;;;0.50;0.40;;;20.90;49.40;;;;;;5070807;28;20314;-43
2021/10/17 12:54:13;;;;;;;1.00;0.52;;;20.80;50.00;;;;;;5070994;28;20246;-49
2021/10/17 12:56:56;;;;;;;0.98;0.50;;;20.80;49.40;;;;;;5075194;28;20238;-47
2021/10/17 12:59:28;;;;;;;0.52;0.52;;;20.80;49.40;;;;;;5072268;28;20198;-45
2021/10/17 13:02:10;;;;;;;0.60;0.50;;;20.80;50.00;;;;;;5070507;28;20282;-47
2021/10/17 13:04:44;;;;;;;0.75;0.63;;;20.70;49.40;;;;;;5070084;28;20198;-52
2021/10/17 13:07:16;;;;;;;0.40;0.40;;;20.70;49.40;;;;;;5072310;28;20602;-47
2021/10/17 13:09:48;;;;;;;0.50;0.50;;;20.70;49.40;;;;;;5070495;28;20265;-54
2021/10/17 13:12:21;;;;;;;1.35;0.70;;;20.70;49.50;;;;;;5086525;28;20233;-51
2021/10/17 13:15:06;;;;;;;0.68;0.60;;;20.70;49.50;;;;;;5070294;28;20332;-48
2021/10/17 13:17:39;;;;;;;1.13;0.63;;;20.70;49.50;;;;;;5069543;28;20237;-44